CheckWX is a tool to help pilots better visualize weather data.  It is not intended as a substitute for an official pre-flight weather briefing.

20:18:40 UTC

KBLI TAF
Bellingham International Airport
Bellingham, Washington, USA
KBLI 052324Z 0600/0624 22007KT P6SM SKC FM061100 17005KT P6SM BKN050 FM061900 17009G16KT P6SM BKN050 OVC250

Jul-6@
00:00 UTC

Jul-6 @ 00:00 UTC

Jul-6@
11:00 UTC

Jul-6 @ 11:00 UTC

TAF KBLI 052324Z 0600/0624 22007KT P6SM SKC

Expired

Wind
  • 220° at 7 KTS
Cloud Levels
  • Clear skies

Jul-6@
11:00 UTC

Jul-6 @ 11:00 UTC

Jul-6@
19:00 UTC

Jul-6 @ 19:00 UTC

FM061100 17005KT P6SM BKN050

Expired

Wind
  • 170° at 5 KTS
Cloud Levels
  • Broken at 5,000' AGL

Jul-6@
19:00 UTC

Jul-6 @ 19:00 UTC

Jul-7@
00:00 UTC

Jul-7 @ 00:00 UTC

FM061900 17009G16KT P6SM BKN050 OVC250

From

From Standard forecast or significant change

Wind
  • 170° at 9 KTS
  • {Gusting to 16 KTS
Cloud Levels
  • Broken at 5,000' AGL
  • Overcast at 25,000' AGL